OKA weather

Naha Airport
Naha, Okinawa Prefecture, Japan

Public forecast

Using degrees Celsius for public forecast. Weather courtesy of forecast.io.

METAR (pilot weather report)

Retrieved 2019/03/25 16:00 UTC (13 minutes ago):

ROAH 251600Z 32014KT 9999 SCT030 20/14 Q1016 RMK 3CU030 A3003

TAF (pilot weather forecast)

Retrieved 2019/03/25 12:00 UTC (4 hours ago):

TAF ROAH 251105Z 2512/2618 33016KT 9999 FEW015 SCT045 BECMG 2609/2612 05006KT